createdAt,value
2017-11-15T00:02:01.437Z,101953.72
2017-11-15T00:04:36.571Z,101948.52
2017-11-15T00:07:11.781Z,101942.42
2017-11-15T00:09:47.308Z,101944.97
2017-11-15T00:12:22.087Z,101944.98
2017-11-15T00:14:57.432Z,101936.48
2017-11-15T00:17:32.245Z,101939.58
2017-11-15T00:20:07.420Z,101939.56
2017-11-15T00:22:42.326Z,101935.23
2017-11-15T00:25:17.146Z,101943.60
2017-11-15T00:27:51.934Z,101944.72
2017-11-15T00:30:26.895Z,101956.89
2017-11-15T00:33:01.697Z,101952.86
2017-11-15T00:35:36.789Z,101952.41
2017-11-15T00:38:11.548Z,101951.24
2017-11-15T00:40:46.668Z,101953.08
2017-11-15T00:43:21.672Z,101954.81
2017-11-15T00:45:56.326Z,101955.63
2017-11-15T00:48:31.197Z,101956.42
2017-11-15T00:51:06.312Z,101956.39
2017-11-15T00:53:41.052Z,101955.41
2017-11-15T00:56:15.937Z,101952.95
2017-11-15T00:58:50.778Z,101950.71
2017-11-15T01:01:25.565Z,101947.31
2017-11-15T01:04:00.241Z,101952.54
2017-11-15T01:06:35.171Z,101958.09
2017-11-15T01:09:10.025Z,101961.09
2017-11-15T01:11:44.755Z,101960.83
2017-11-15T01:14:19.971Z,101959.57
2017-11-15T01:16:54.640Z,101967.75
2017-11-15T01:19:29.289Z,101963.38
2017-11-15T01:22:04.844Z,101963.68
2017-11-15T01:24:39.819Z,101963.45
2017-11-15T01:27:14.849Z,101959.34
2017-11-15T01:29:49.400Z,101960.14
2017-11-15T01:32:24.371Z,101956.17
2017-11-15T01:34:59.112Z,101946.77
2017-11-15T01:37:33.941Z,101947.57
2017-11-15T01:40:08.840Z,101953.83
2017-11-15T01:42:43.297Z,101952.27
2017-11-15T01:45:18.331Z,101949.31
2017-11-15T01:47:53.368Z,101950.28
2017-11-15T01:50:28.403Z,101954.31
2017-11-15T01:53:03.380Z,101957.69
2017-11-15T01:55:38.184Z,101960.14
2017-11-15T01:58:13.197Z,101958.27
2017-11-15T02:00:59.638Z,101952.35
2017-11-15T02:03:34.572Z,101949.13
2017-11-15T02:06:09.299Z,101952.09
2017-11-15T02:08:44.371Z,101955.23
2017-11-15T02:11:19.372Z,101955.98
2017-11-15T02:13:53.757Z,101951.86
2017-11-15T02:16:28.512Z,101954.69
2017-11-15T02:19:03.516Z,101953.70
2017-11-15T02:21:38.293Z,101946.62
2017-11-15T02:24:12.894Z,101942.16
2017-11-15T02:26:47.491Z,101951.81
2017-11-15T02:29:22.260Z,101945.95
2017-11-15T02:31:56.957Z,101945.81
2017-11-15T02:34:32.009Z,101943.58
2017-11-15T02:37:06.868Z,101951.14
2017-11-15T02:39:41.177Z,101943.31
2017-11-15T02:42:16.096Z,101945.55
2017-11-15T02:44:50.548Z,101942.87
2017-11-15T02:47:25.476Z,101935.75
2017-11-15T02:50:00.637Z,101932.52
2017-11-15T02:52:35.089Z,101935.61
2017-11-15T02:55:10.419Z,101935.61
2017-11-15T02:57:45.197Z,101936.28
2017-11-15T03:00:19.859Z,101925.77
2017-11-15T03:02:54.868Z,101931.39
2017-11-15T03:05:29.740Z,101932.17
2017-11-15T03:08:04.870Z,101913.78
2017-11-15T03:10:39.775Z,101924.72
2017-11-15T03:13:14.797Z,101918.58
2017-11-15T03:15:49.708Z,101926.46
2017-11-15T03:18:24.493Z,101922.31
2017-11-15T03:20:59.066Z,101914.40
2017-11-15T03:23:34.092Z,101921.56
2017-11-15T03:26:08.607Z,101923.97
2017-11-15T03:28:42.754Z,101920.03
2017-11-15T03:31:17.422Z,101915.01
2017-11-15T03:33:52.192Z,101923.42
2017-11-15T03:36:26.739Z,101917.16
2017-11-15T03:39:01.406Z,101922.98
2017-11-15T03:41:36.720Z,101917.04
2017-11-15T03:44:11.738Z,101915.66
2017-11-15T03:46:46.588Z,101911.36
2017-11-15T03:49:21.420Z,101909.47
2017-11-15T03:51:56.159Z,101908.54
2017-11-15T03:54:30.901Z,101909.88
2017-11-15T03:57:05.739Z,101914.00
2017-11-15T03:59:40.366Z,101919.00
2017-11-15T04:02:14.793Z,101921.19
2017-11-15T04:04:50.173Z,101919.89
2017-11-15T04:07:24.670Z,101913.45
2017-11-15T04:09:59.856Z,101919.97
2017-11-15T04:12:34.781Z,101920.79
2017-11-15T04:15:09.581Z,101916.35
2017-11-15T04:17:44.560Z,101930.14
2017-11-15T04:20:19.484Z,101930.80
2017-11-15T04:22:54.416Z,101928.39
2017-11-15T04:25:29.092Z,101933.19
2017-11-15T04:28:03.969Z,101931.80
2017-11-15T04:30:38.601Z,101933.80
2017-11-15T04:33:13.590Z,101935.19
2017-11-15T04:35:48.427Z,101931.18
2017-11-15T04:38:23.552Z,101938.31
2017-11-15T04:40:58.533Z,101939.49
2017-11-15T04:43:33.665Z,101942.49
2017-11-15T04:46:08.612Z,101943.79
2017-11-15T04:48:43.599Z,101946.96
2017-11-15T04:51:18.669Z,101942.23
2017-11-15T04:53:53.937Z,101936.22
2017-11-15T04:56:28.980Z,101944.90
2017-11-15T04:59:03.431Z,101945.97
2017-11-15T05:01:38.670Z,101946.43
2017-11-15T05:04:13.601Z,101946.08
2017-11-15T05:06:48.556Z,101950.65
2017-11-15T05:09:23.363Z,101951.39
2017-11-15T05:11:57.953Z,101949.88
2017-11-15T05:14:32.798Z,101956.02
2017-11-15T05:17:07.941Z,101963.94
2017-11-15T05:19:44.633Z,101964.47
2017-11-15T05:22:19.410Z,101973.73
2017-11-15T05:24:54.183Z,101967.63
2017-11-15T05:27:29.226Z,101970.55
2017-11-15T05:30:03.457Z,101972.73
2017-11-15T05:32:38.776Z,101971.31
2017-11-15T05:35:13.376Z,101967.78
2017-11-15T05:37:48.412Z,101968.05
2017-11-15T05:40:23.260Z,101967.63
2017-11-15T05:42:58.197Z,101969.03
2017-11-15T05:45:33.085Z,101969.27
2017-11-15T05:48:07.904Z,101968.01
2017-11-15T05:50:42.799Z,101960.37
2017-11-15T05:53:17.957Z,101976.34
2017-11-15T05:55:52.761Z,101973.46
2017-11-15T05:58:27.888Z,101976.05
2017-11-15T06:01:02.500Z,101982.55
2017-11-15T06:03:37.632Z,101980.45
2017-11-15T06:06:12.579Z,101987.34
2017-11-15T06:08:47.621Z,101986.12
2017-11-15T06:11:22.278Z,101981.88
2017-11-15T06:13:56.970Z,101981.61
2017-11-15T06:16:32.376Z,101984.52
2017-11-15T06:19:06.969Z,101974.36
2017-11-15T06:21:41.884Z,101979.23
2017-11-15T06:24:16.928Z,101985.01
2017-11-15T06:26:51.583Z,101989.49
2017-11-15T06:29:26.629Z,101995.35
2017-11-15T06:32:01.229Z,101992.67
2017-11-15T06:34:36.135Z,101993.88
2017-11-15T06:37:10.992Z,101988.73
2017-11-15T06:39:45.874Z,101986.70
2017-11-15T06:42:20.820Z,101995.75
2017-11-15T06:44:55.761Z,102003.64
2017-11-15T06:47:30.604Z,102001.48
2017-11-15T06:50:05.085Z,102003.72
2017-11-15T06:52:40.388Z,101997.28
2017-11-15T06:55:14.876Z,102003.14
2017-11-15T06:57:50.239Z,102007.06
2017-11-15T07:00:24.465Z,102015.90
2017-11-15T07:02:59.845Z,102018.12
2017-11-15T07:05:34.829Z,102015.40
2017-11-15T07:08:09.881Z,102023.37
2017-11-15T07:10:44.899Z,102021.62
2017-11-15T07:13:20.141Z,102021.62
2017-11-15T07:15:55.201Z,102026.95
2017-11-15T07:18:30.573Z,102027.94
2017-11-15T07:21:05.753Z,102021.62
2017-11-15T07:23:40.868Z,102028.75
2017-11-15T07:26:15.641Z,102014.83
2017-11-15T07:28:50.589Z,102032.10
2017-11-15T07:31:25.508Z,102035.64
2017-11-15T07:34:00.517Z,102029.81
2017-11-15T07:36:35.640Z,102039.05
2017-11-15T07:39:10.093Z,102035.46
2017-11-15T07:41:44.937Z,102037.34
2017-11-15T07:44:19.478Z,102038.86
2017-11-15T07:46:54.469Z,102043.34
2017-11-15T07:49:29.237Z,102045.75
2017-11-15T07:52:04.186Z,102054.13
2017-11-15T07:54:39.423Z,102047.69
2017-11-15T07:57:13.956Z,102060.36
2017-11-15T07:59:49.237Z,102065.96
2017-11-15T08:02:24.213Z,102059.73
2017-11-15T08:04:59.003Z,102058.30
2017-11-15T08:07:33.898Z,102065.91
2017-11-15T08:10:08.905Z,102063.49
2017-11-15T08:12:43.852Z,102077.70
2017-11-15T08:15:18.908Z,102066.19
2017-11-15T08:17:54.010Z,102061.03
2017-11-15T08:20:29.322Z,102062.42
2017-11-15T08:23:04.159Z,102060.59
2017-11-15T08:25:39.205Z,102057.00
2017-11-15T08:28:14.229Z,102062.64
2017-11-15T08:30:49.116Z,102055.91
2017-11-15T08:33:24.017Z,102067.82
2017-11-15T08:35:58.816Z,102069.35
2017-11-15T08:38:33.669Z,102066.45
2017-11-15T08:41:08.429Z,102082.17
2017-11-15T08:43:43.217Z,102080.50
2017-11-15T08:46:17.840Z,102082.20
2017-11-15T08:48:52.573Z,102088.25
2017-11-15T08:51:27.705Z,102084.22
2017-11-15T08:54:02.105Z,102091.52
2017-11-15T08:56:37.084Z,102087.89
2017-11-15T08:59:11.906Z,102097.07
2017-11-15T09:01:46.913Z,102090.30
2017-11-15T09:04:21.641Z,102096.75
2017-11-15T09:06:56.723Z,102096.92
2017-11-15T09:09:31.572Z,102095.27
2017-11-15T09:12:06.453Z,102097.34
2017-11-15T09:14:41.405Z,102095.19
2017-11-15T09:17:16.221Z,102087.62
2017-11-15T09:19:51.349Z,102092.50
2017-11-15T09:22:26.120Z,102092.09
2017-11-15T09:25:01.062Z,102093.94
2017-11-15T09:27:36.004Z,102088.47
2017-11-15T09:30:10.687Z,102092.50
2017-11-15T09:32:45.836Z,102092.31
2017-11-15T09:35:21.404Z,102098.50
2017-11-15T09:37:56.513Z,102106.52
2017-11-15T09:40:31.801Z,102109.67
2017-11-15T09:43:06.825Z,102108.73
2017-11-15T09:45:41.856Z,102108.75
2017-11-15T09:48:17.017Z,102110.63
2017-11-15T09:50:51.723Z,102108.89
2017-11-15T09:53:26.442Z,102112.23
2017-11-15T09:56:01.276Z,102118.86
2017-11-15T09:58:36.125Z,102119.91
2017-11-15T10:01:11.026Z,102122.34
2017-11-15T10:03:45.928Z,102128.92
2017-11-15T10:06:20.710Z,102131.62
2017-11-15T10:08:55.625Z,102128.38
2017-11-15T10:11:30.696Z,102125.56
2017-11-15T10:14:05.495Z,102118.87
2017-11-15T10:16:40.728Z,102118.86
2017-11-15T10:19:15.601Z,102127.42
2017-11-15T10:21:50.581Z,102131.69
2017-11-15T10:24:25.457Z,102128.14
2017-11-15T10:27:00.470Z,102125.30
2017-11-15T10:29:35.308Z,102126.88
2017-11-15T10:32:10.322Z,102125.53
2017-11-15T10:34:45.244Z,102123.95
2017-11-15T10:37:20.173Z,102121.13
2017-11-15T10:39:55.224Z,102128.06
2017-11-15T10:42:30.257Z,102121.88
2017-11-15T10:45:05.213Z,102120.26
2017-11-15T10:47:40.089Z,102119.05
2017-11-15T10:50:14.558Z,102117.02
2017-11-15T10:52:49.491Z,102119.22
2017-11-15T10:55:24.498Z,102116.34
2017-11-15T10:57:59.478Z,102108.17
2017-11-15T11:00:39.859Z,102104.14
2017-11-15T11:03:14.809Z,102102.80
2017-11-15T11:05:49.364Z,102107.11
2017-11-15T11:08:24.512Z,102108.01
2017-11-15T11:10:59.245Z,102104.77
2017-11-15T11:13:34.325Z,102098.67
2017-11-15T11:16:09.551Z,102102.38
2017-11-15T11:18:44.530Z,102103.97
2017-11-15T11:21:19.782Z,102100.99
2017-11-15T11:23:54.272Z,102102.55
2017-11-15T11:26:29.162Z,102095.58
2017-11-15T11:29:04.361Z,102094.19
2017-11-15T11:31:38.873Z,102085.57
2017-11-15T11:34:13.724Z,102088.81
2017-11-15T11:36:48.528Z,102090.42
2017-11-15T11:39:23.529Z,102086.56
2017-11-15T11:41:58.437Z,102080.00
2017-11-15T11:44:33.485Z,102081.69
2017-11-15T11:47:08.237Z,102077.50
2017-11-15T11:49:43.126Z,102082.73
2017-11-15T11:52:17.964Z,102088.27
2017-11-15T11:54:52.805Z,102082.89
2017-11-15T11:57:27.546Z,102080.39
2017-11-15T12:00:02.263Z,102083.34
2017-11-15T12:02:37.796Z,102077.27
2017-11-15T12:05:12.972Z,102077.70
2017-11-15T12:07:48.234Z,102077.22
2017-11-15T12:10:28.292Z,102073.38
2017-11-15T12:13:02.857Z,102083.00
2017-11-15T12:15:37.538Z,102069.53
2017-11-15T12:18:12.524Z,102080.05
2017-11-15T12:20:47.193Z,102082.19
2017-11-15T12:23:21.896Z,102075.88
2017-11-15T12:25:56.492Z,102078.50
2017-11-15T12:28:31.344Z,102077.36
2017-11-15T12:31:06.419Z,102077.81
2017-11-15T12:33:40.797Z,102066.39
2017-11-15T12:36:15.629Z,102082.84
2017-11-15T12:38:50.467Z,102085.08
2017-11-15T12:41:25.069Z,102085.45
2017-11-15T12:44:00.121Z,102084.48
2017-11-15T12:46:34.965Z,102082.09
2017-11-15T12:49:09.557Z,102075.84
2017-11-15T12:51:44.560Z,102079.70
2017-11-15T12:54:19.199Z,102071.27
2017-11-15T12:56:54.253Z,102065.67
2017-11-15T12:59:29.224Z,102063.99
2017-11-15T13:02:04.470Z,102064.28
2017-11-15T13:04:38.848Z,102069.37
2017-11-15T13:07:13.229Z,102070.02
2017-11-15T13:09:47.985Z,102067.02
2017-11-15T13:12:22.957Z,102063.99
2017-11-15T13:14:58.192Z,102061.05
2017-11-15T13:17:33.144Z,102068.02
2017-11-15T13:20:08.473Z,102064.58
2017-11-15T13:22:43.428Z,102059.09
2017-11-15T13:25:18.329Z,102058.26
2017-11-15T13:27:52.821Z,102064.28
2017-11-15T13:30:27.933Z,102053.97
2017-11-15T13:33:02.747Z,102057.91
2017-11-15T13:35:37.167Z,102054.47
2017-11-15T13:38:12.318Z,102064.39
2017-11-15T13:40:47.349Z,102067.03
2017-11-15T13:43:21.869Z,102080.06
2017-11-15T13:45:57.006Z,102077.36
2017-11-15T13:48:32.001Z,102072.08
2017-11-15T13:51:06.884Z,102079.19
2017-11-15T13:53:41.614Z,102079.85
2017-11-15T13:56:16.749Z,102077.09
2017-11-15T13:58:51.666Z,102070.73
2017-11-15T14:01:26.598Z,102067.03
2017-11-15T14:04:01.601Z,102073.80
2017-11-15T14:06:36.265Z,102079.45
2017-11-15T14:09:11.084Z,102078.20
2017-11-15T14:11:45.914Z,102080.05
2017-11-15T14:14:20.984Z,102083.64
2017-11-15T14:16:55.725Z,102084.64
2017-11-15T14:19:30.656Z,102083.15
2017-11-15T14:22:05.358Z,102079.45
2017-11-15T14:24:40.480Z,102085.73
2017-11-15T14:27:22.029Z,102083.40
2017-11-15T14:29:56.721Z,102088.58
2017-11-15T14:32:32.023Z,102087.69
2017-11-15T14:35:06.817Z,102087.28
2017-11-15T14:37:41.718Z,102088.58
2017-11-15T14:40:16.745Z,102093.12
2017-11-15T14:42:51.576Z,102096.31
2017-11-15T14:45:26.153Z,102092.88
2017-11-15T14:48:00.991Z,102099.00
2017-11-15T14:50:35.786Z,102096.85
2017-11-15T14:53:10.707Z,102098.21
2017-11-15T14:55:45.617Z,102104.58
2017-11-15T14:58:20.553Z,102102.88
2017-11-15T15:00:55.249Z,102106.47
2017-11-15T15:03:30.157Z,102104.37
2017-11-15T15:06:05.149Z,102107.82
2017-11-15T15:08:40.189Z,102111.92
2017-11-15T15:11:14.913Z,102114.06
2017-11-15T15:13:49.736Z,102107.21
2017-11-15T15:16:24.535Z,102113.36
2017-11-15T15:18:59.233Z,102114.06
2017-11-15T15:21:34.052Z,102076.59
2017-11-15T15:24:08.777Z,102112.52
2017-11-15T15:26:43.572Z,102116.59
2017-11-15T15:29:18.404Z,102114.11
2017-11-15T15:31:53.852Z,102122.98
2017-11-15T15:34:29.294Z,102119.69
2017-11-15T15:37:03.945Z,102124.87
2017-11-15T15:39:39.112Z,102127.27
2017-11-15T15:42:14.321Z,102121.27
2017-11-15T15:44:49.465Z,102120.07
2017-11-15T15:47:24.157Z,102115.28
2017-11-15T15:49:59.118Z,102116.11
2017-11-15T15:52:33.864Z,102114.31
2017-11-15T15:55:08.764Z,102115.77
2017-11-15T15:57:43.553Z,102111.21
2017-11-15T16:00:18.457Z,102117.40
2017-11-15T16:02:53.509Z,102117.05
2017-11-15T16:05:28.385Z,102109.50
2017-11-15T16:08:03.157Z,102111.80
2017-11-15T16:10:38.518Z,102111.32
2017-11-15T16:13:13.143Z,102112.31
2017-11-15T16:15:47.949Z,102114.66
2017-11-15T16:18:22.724Z,102108.92
2017-11-15T16:20:57.623Z,102105.88
2017-11-15T16:23:32.480Z,102108.66
2017-11-15T16:26:07.597Z,102116.50
2017-11-15T16:28:42.614Z,102109.81
2017-11-15T16:31:17.240Z,102114.23
2017-11-15T16:33:52.389Z,102115.17
2017-11-15T16:36:27.354Z,102114.37
2017-11-15T16:39:04.201Z,102114.38
2017-11-15T16:41:39.707Z,102106.64
2017-11-15T16:44:14.652Z,102110.96
2017-11-15T16:46:50.029Z,102113.44
2017-11-15T16:49:24.985Z,102109.78
2017-11-15T16:51:59.896Z,102113.33
2017-11-15T16:54:35.026Z,102114.08
2017-11-15T16:57:10.165Z,102118.06
2017-11-15T16:59:44.997Z,102117.36
2017-11-15T17:02:19.945Z,102117.63
2017-11-15T17:04:54.795Z,102118.23
2017-11-15T17:07:29.721Z,102114.59
2017-11-15T17:10:04.579Z,102108.17
2017-11-15T17:12:39.400Z,102111.86
2017-11-15T17:15:14.290Z,102112.52
2017-11-15T17:17:49.117Z,102111.29
2017-11-15T17:20:24.054Z,102113.98
2017-11-15T17:22:59.217Z,102106.55
2017-11-15T17:25:34.052Z,102104.14
2017-11-15T17:28:09.059Z,102103.53
2017-11-15T17:30:43.752Z,102104.42
2017-11-15T17:33:18.653Z,102105.53
2017-11-15T17:35:53.617Z,102116.46
2017-11-15T17:38:28.561Z,102105.88
2017-11-15T17:41:03.458Z,102116.86
2017-11-15T17:43:38.205Z,102125.73
2017-11-15T17:46:12.704Z,102120.70
2017-11-15T17:48:48.051Z,102123.22
2017-11-15T17:51:22.704Z,102122.61
2017-11-15T17:53:57.905Z,102122.25
2017-11-15T17:56:32.940Z,102123.05
2017-11-15T17:59:08.086Z,102122.02
2017-11-15T18:01:43.393Z,102126.62
2017-11-15T18:04:18.745Z,102120.16
2017-11-15T18:06:53.976Z,102120.23
2017-11-15T18:09:29.030Z,102120.14
2017-11-15T18:12:03.948Z,102120.19
2017-11-15T18:14:38.786Z,102116.05
2017-11-15T18:17:13.708Z,102116.00
2017-11-15T18:19:48.457Z,102112.77
2017-11-15T18:22:23.468Z,102114.06
2017-11-15T18:24:58.388Z,102121.48
2017-11-15T18:27:33.257Z,102119.30
2017-11-15T18:30:08.040Z,102122.92
2017-11-15T18:32:43.310Z,102124.77
2017-11-15T18:35:18.232Z,102116.69
2017-11-15T18:37:53.949Z,102118.63
2017-11-15T18:40:28.947Z,102118.06
2017-11-15T18:43:03.977Z,102120.17
2017-11-15T18:45:39.169Z,102127.41
2017-11-15T18:48:14.065Z,102121.73
2017-11-15T18:50:49.083Z,102119.14
2017-11-15T18:53:24.136Z,102116.34
2017-11-15T18:55:59.185Z,102109.29
2017-11-15T18:58:34.274Z,102112.45
2017-11-15T19:01:09.368Z,102111.45
2017-11-15T19:03:44.404Z,102115.55
2017-11-15T19:06:19.220Z,102111.53
2017-11-15T19:08:54.315Z,102106.66
2017-11-15T19:11:29.381Z,102115.95
2017-11-15T19:14:04.688Z,102113.38
2017-11-15T19:16:39.565Z,102109.14
2017-11-15T19:19:14.844Z,102110.94
2017-11-15T19:21:49.675Z,102105.42
2017-11-15T19:24:24.367Z,102112.09
2017-11-15T19:26:59.281Z,102108.84
2017-11-15T19:29:33.793Z,102117.77
2017-11-15T19:32:08.267Z,102113.71
2017-11-15T19:34:43.185Z,102111.44
2017-11-15T19:37:18.090Z,102109.59
2017-11-15T19:39:53.098Z,102121.15
2017-11-15T19:42:27.944Z,102123.26
2017-11-15T19:45:03.076Z,102125.95
2017-11-15T19:47:37.858Z,102122.26
2017-11-15T19:50:12.911Z,102123.37
2017-11-15T19:52:47.809Z,102128.97
2017-11-15T19:55:22.741Z,102123.50
2017-11-15T19:57:57.532Z,102118.96
2017-11-15T20:00:32.489Z,102120.91
2017-11-15T20:03:07.548Z,102124.66
2017-11-15T20:05:42.448Z,102132.88
2017-11-15T20:08:17.272Z,102129.34
2017-11-15T20:10:52.163Z,102134.72
2017-11-15T20:13:26.969Z,102137.94
2017-11-15T20:16:01.781Z,102130.02
2017-11-15T20:18:36.696Z,102129.08
2017-11-15T20:21:11.627Z,102126.18
2017-11-15T20:23:46.680Z,102122.63
2017-11-15T20:26:21.437Z,102119.70
2017-11-15T20:28:57.032Z,102115.27
2017-11-15T20:31:31.864Z,102116.01
2017-11-15T20:34:06.798Z,102117.40
2017-11-15T20:36:41.582Z,102122.88
2017-11-15T20:39:16.401Z,102114.55
2017-11-15T20:41:51.554Z,102113.43
2017-11-15T20:44:26.585Z,102106.59
2017-11-15T20:47:01.616Z,102106.83
2017-11-15T20:49:36.629Z,102099.21
2017-11-15T20:52:11.521Z,102101.86
2017-11-15T20:54:46.451Z,102102.70
2017-11-15T20:57:21.565Z,102108.58
2017-11-15T20:59:56.489Z,102110.06
2017-11-15T21:02:31.838Z,102112.44
2017-11-15T21:05:06.668Z,102112.36
2017-11-15T21:07:41.507Z,102120.50
2017-11-15T21:10:16.434Z,102118.83
2017-11-15T21:12:51.381Z,102112.09
2017-11-15T21:15:26.191Z,102110.03
2017-11-15T21:18:01.233Z,102106.60
2017-11-15T21:20:36.064Z,102109.78
2017-11-15T21:23:11.001Z,102111.97
2017-11-15T21:25:45.697Z,102107.80
2017-11-15T21:28:21.054Z,102107.23
2017-11-15T21:30:56.204Z,102107.28
2017-11-15T21:33:31.533Z,102106.62
2017-11-15T21:36:06.362Z,102100.28
2017-11-15T21:38:41.685Z,102099.87
2017-11-15T21:41:16.765Z,102106.27
2017-11-15T21:43:51.874Z,102104.05
2017-11-15T21:46:26.900Z,102107.95
2017-11-15T21:49:01.945Z,102106.95
2017-11-15T21:51:36.981Z,102104.89
2017-11-15T21:54:11.536Z,102101.26
2017-11-15T21:56:46.288Z,102102.11
2017-11-15T21:59:21.313Z,102108.83
2017-11-15T22:01:56.408Z,102100.87
2017-11-15T22:04:31.217Z,102101.23
2017-11-15T22:07:06.309Z,102093.50
2017-11-15T22:09:41.232Z,102098.43
2017-11-15T22:12:15.941Z,102094.86
2017-11-15T22:14:50.945Z,102090.38
2017-11-15T22:17:25.842Z,102094.72
2017-11-15T22:20:00.890Z,102106.23
2017-11-15T22:22:35.880Z,102091.92
2017-11-15T22:25:11.020Z,102089.43
2017-11-15T22:27:46.049Z,102093.95
2017-11-15T22:30:21.058Z,102090.67
2017-11-15T22:32:55.829Z,102090.47
2017-11-15T22:35:30.681Z,102098.09
2017-11-15T22:38:05.565Z,102097.04
2017-11-15T22:40:40.614Z,102098.05
2017-11-15T22:43:15.620Z,102101.04
2017-11-15T22:45:50.822Z,102098.75
2017-11-15T22:48:25.871Z,102097.52
2017-11-15T22:51:00.977Z,102105.89
2017-11-15T22:53:35.946Z,102095.58
2017-11-15T22:56:10.633Z,102094.87
2017-11-15T22:58:45.668Z,102090.05
2017-11-15T23:01:20.433Z,102095.92
2017-11-15T23:03:55.276Z,102092.33
2017-11-15T23:06:30.173Z,102082.71
2017-11-15T23:09:04.583Z,102078.23
2017-11-15T23:11:39.733Z,102081.77
2017-11-15T23:14:13.966Z,102087.74
2017-11-15T23:16:48.988Z,102074.79
2017-11-15T23:19:23.688Z,102074.79
2017-11-15T23:21:58.429Z,102073.89
2017-11-15T23:24:33.301Z,102069.31
2017-11-15T23:27:07.765Z,102073.75
2017-11-15T23:29:42.964Z,102066.47
2017-11-15T23:32:18.077Z,102066.38
2017-11-15T23:34:52.908Z,102061.90
2017-11-15T23:37:27.810Z,102064.18
2017-11-15T23:40:02.744Z,102059.20
2017-11-15T23:42:37.777Z,102060.20
2017-11-15T23:45:12.627Z,102055.52
2017-11-15T23:47:47.550Z,102051.30
2017-11-15T23:50:22.518Z,102050.46
2017-11-15T23:52:57.444Z,102050.46
2017-11-15T23:55:32.886Z,102055.75
2017-11-15T23:58:07.561Z,102055.70
